sensor_id;sensor_type;location;lat;lon;timestamp;temperature;humidity
34877;DHT22;21086;44.780;17.194;2023-02-19T00:01:28;10.30;99.90
34877;DHT22;21086;44.780;17.194;2023-02-19T00:04:05;10.20;99.90
34877;DHT22;21086;44.780;17.194;2023-02-19T00:06:34;10.20;99.90
34877;DHT22;21086;44.780;17.194;2023-02-19T00:09:02;10.20;99.90
34877;DHT22;21086;44.780;17.194;2023-02-19T00:11:32;10.10;99.90
34877;DHT22;21086;44.780;17.194;2023-02-19T00:14:01;10.20;99.90
34877;DHT22;21086;44.780;17.194;2023-02-19T00:16:31;10.20;99.90
34877;DHT22;21086;44.780;17.194;2023-02-19T00:18:59;10.20;99.90
34877;DHT22;21086;44.780;17.194;2023-02-19T00:21:26;10.20;99.90
34877;DHT22;21086;44.780;17.194;2023-02-19T00:24:01;10.10;99.90
34877;DHT22;21086;44.780;17.194;2023-02-19T00:26:29;10.10;99.90
34877;DHT22;21086;44.780;17.194;2023-02-19T00:28:57;10.10;99.90
34877;DHT22;21086;44.780;17.194;2023-02-19T00:31:32;10.00;99.90
34877;DHT22;21086;44.780;17.194;2023-02-19T00:34:02;10.00;99.90
34877;DHT22;21086;44.780;17.194;2023-02-19T00:36:30;10.00;99.90
34877;DHT22;21086;44.780;17.194;2023-02-19T00:38:57;10.00;99.90
34877;DHT22;21086;44.780;17.194;2023-02-19T00:41:25;9.90;99.90
34877;DHT22;21086;44.780;17.194;2023-02-19T00:43:58;9.90;99.90
34877;DHT22;21086;44.780;17.194;2023-02-19T00:46:28;9.90;99.90
34877;DHT22;21086;44.780;17.194;2023-02-19T00:48:56;9.90;99.90
34877;DHT22;21086;44.780;17.194;2023-02-19T00:51:26;9.90;99.90
34877;DHT22;21086;44.780;17.194;2023-02-19T00:53:53;9.80;99.90
34877;DHT22;21086;44.780;17.194;2023-02-19T00:56:20;9.80;99.90
34877;DHT22;21086;44.780;17.194;2023-02-19T00:58:48;9.80;99.90
34877;DHT22;21086;44.780;17.194;2023-02-19T01:01:15;9.80;99.90
34877;DHT22;21086;44.780;17.194;2023-02-19T01:03:42;9.70;99.90
34877;DHT22;21086;44.780;17.194;2023-02-19T01:06:10;9.70;99.90
34877;DHT22;21086;44.780;17.194;2023-02-19T01:08:38;9.70;99.90
34877;DHT22;21086;44.780;17.194;2023-02-19T01:11:06;9.70;99.90
34877;DHT22;21086;44.780;17.194;2023-02-19T01:13:34;9.60;99.90
34877;DHT22;21086;44.780;17.194;2023-02-19T01:16:15;9.50;99.90
34877;DHT22;21086;44.780;17.194;2023-02-19T01:18:42;9.40;99.90
34877;DHT22;21086;44.780;17.194;2023-02-19T01:21:13;9.40;99.90
34877;DHT22;21086;44.780;17.194;2023-02-19T01:23:40;9.30;99.90
34877;DHT22;21086;44.780;17.194;2023-02-19T01:26:10;9.30;99.90
34877;DHT22;21086;44.780;17.194;2023-02-19T01:28:38;9.20;99.90
34877;DHT22;21086;44.780;17.194;2023-02-19T01:31:07;9.20;99.90
34877;DHT22;21086;44.780;17.194;2023-02-19T01:33:35;9.20;99.90
34877;DHT22;21086;44.780;17.194;2023-02-19T01:36:03;9.20;99.90
34877;DHT22;21086;44.780;17.194;2023-02-19T01:38:30;9.10;99.90
34877;DHT22;21086;44.780;17.194;2023-02-19T01:41:05;9.20;99.90
34877;DHT22;21086;44.780;17.194;2023-02-19T01:43:52;9.10;99.90
34877;DHT22;21086;44.780;17.194;2023-02-19T01:46:20;9.10;99.90
34877;DHT22;21086;44.780;17.194;2023-02-19T01:48:47;9.10;99.90
34877;DHT22;21086;44.780;17.194;2023-02-19T01:51:17;9.10;99.90
34877;DHT22;21086;44.780;17.194;2023-02-19T01:53:51;9.00;99.90
34877;DHT22;21086;44.780;17.194;2023-02-19T01:56:20;9.00;99.90
34877;DHT22;21086;44.780;17.194;2023-02-19T01:58:47;8.90;99.90
34877;DHT22;21086;44.780;17.194;2023-02-19T02:01:14;8.90;99.90
34877;DHT22;21086;44.780;17.194;2023-02-19T02:03:45;8.80;99.90
34877;DHT22;21086;44.780;17.194;2023-02-19T02:08:45;8.80;99.90
34877;DHT22;21086;44.780;17.194;2023-02-19T02:11:31;8.80;99.90
34877;DHT22;21086;44.780;17.194;2023-02-19T02:13:59;8.90;99.90
34877;DHT22;21086;44.780;17.194;2023-02-19T02:17:08;8.80;99.90
34877;DHT22;21086;44.780;17.194;2023-02-19T02:30:31;8.70;99.90
34877;DHT22;21086;44.780;17.194;2023-02-19T02:33:25;8.70;99.90
34877;DHT22;21086;44.780;17.194;2023-02-19T02:36:12;8.60;99.90
34877;DHT22;21086;44.780;17.194;2023-02-19T02:38:42;8.60;99.90
34877;DHT22;21086;44.780;17.194;2023-02-19T02:41:12;8.60;99.90
34877;DHT22;21086;44.780;17.194;2023-02-19T02:43:40;8.50;99.90
34877;DHT22;21086;44.780;17.194;2023-02-19T02:46:11;8.50;99.90
34877;DHT22;21086;44.780;17.194;2023-02-19T02:53:52;8.40;99.90
34877;DHT22;21086;44.780;17.194;2023-02-19T02:56:39;8.30;99.90
34877;DHT22;21086;44.780;17.194;2023-02-19T02:59:09;8.10;99.90
34877;DHT22;21086;44.780;17.194;2023-02-19T03:01:52;8.20;99.90
34877;DHT22;21086;44.780;17.194;2023-02-19T03:07:59;8.20;99.90
34877;DHT22;21086;44.780;17.194;2023-02-19T03:13:15;8.20;99.90
34877;DHT22;21086;44.780;17.194;2023-02-19T03:16:09;8.20;99.90
34877;DHT22;21086;44.780;17.194;2023-02-19T03:18:58;8.20;99.90
34877;DHT22;21086;44.780;17.194;2023-02-19T03:22:07;8.20;99.90
34877;DHT22;21086;44.780;17.194;2023-02-19T03:24:56;8.00;99.90
34877;DHT22;21086;44.780;17.194;2023-02-19T03:27:45;8.00;99.90
34877;DHT22;21086;44.780;17.194;2023-02-19T03:30:20;8.10;99.90
34877;DHT22;21086;44.780;17.194;2023-02-19T03:35:30;8.00;99.90
34877;DHT22;21086;44.780;17.194;2023-02-19T03:38:59;8.00;99.90
34877;DHT22;21086;44.780;17.194;2023-02-19T03:41:09;8.00;99.90
34877;DHT22;21086;44.780;17.194;2023-02-19T03:43:42;7.90;99.90
34877;DHT22;21086;44.780;17.194;2023-02-19T03:49:21;7.90;99.90
34877;DHT22;21086;44.780;17.194;2023-02-19T03:52:17;7.70;99.90
34877;DHT22;21086;44.780;17.194;2023-02-19T03:54:52;7.70;99.90
34877;DHT22;21086;44.780;17.194;2023-02-19T03:57:23;7.60;99.90
34877;DHT22;21086;44.780;17.194;2023-02-19T04:00:08;7.70;99.90
34877;DHT22;21086;44.780;17.194;2023-02-19T04:02:52;7.60;99.90
34877;DHT22;21086;44.780;17.194;2023-02-19T04:05:28;7.60;99.90
34877;DHT22;21086;44.780;17.194;2023-02-19T04:08:04;7.60;99.90
34877;DHT22;21086;44.780;17.194;2023-02-19T04:10:31;7.50;99.90
34877;DHT22;21086;44.780;17.194;2023-02-19T04:13:05;7.60;99.90
34877;DHT22;21086;44.780;17.194;2023-02-19T04:15:36;7.60;99.90
34877;DHT22;21086;44.780;17.194;2023-02-19T04:18:10;7.60;99.90
34877;DHT22;21086;44.780;17.194;2023-02-19T04:20:42;6.20;99.90
34877;DHT22;21086;44.780;17.194;2023-02-19T04:23:11;7.60;99.90
34877;DHT22;21086;44.780;17.194;2023-02-19T04:25:43;7.60;99.90
34877;DHT22;21086;44.780;17.194;2023-02-19T04:28:13;7.60;99.90
34877;DHT22;21086;44.780;17.194;2023-02-19T04:30:40;7.60;99.90
34877;DHT22;21086;44.780;17.194;2023-02-19T04:33:07;7.60;99.90
34877;DHT22;21086;44.780;17.194;2023-02-19T04:35:35;7.60;99.90
34877;DHT22;21086;44.780;17.194;2023-02-19T04:38:02;7.50;99.90
34877;DHT22;21086;44.780;17.194;2023-02-19T04:40:29;7.50;99.90
34877;DHT22;21086;44.780;17.194;2023-02-19T04:42:56;7.40;99.90
34877;DHT22;21086;44.780;17.194;2023-02-19T04:45:23;7.40;99.90
34877;DHT22;21086;44.780;17.194;2023-02-19T04:47:49;7.30;99.90
34877;DHT22;21086;44.780;17.194;2023-02-19T04:50:16;7.30;99.90
34877;DHT22;21086;44.780;17.194;2023-02-19T04:52:43;7.30;99.90
34877;DHT22;21086;44.780;17.194;2023-02-19T04:55:10;7.30;99.90
34877;DHT22;21086;44.780;17.194;2023-02-19T04:57:37;7.40;99.90
34877;DHT22;21086;44.780;17.194;2023-02-19T05:00:04;7.30;99.90
34877;DHT22;21086;44.780;17.194;2023-02-19T05:02:31;7.30;99.90
34877;DHT22;21086;44.780;17.194;2023-02-19T05:04:58;7.30;99.90
34877;DHT22;21086;44.780;17.194;2023-02-19T05:07:25;7.30;99.90
34877;DHT22;21086;44.780;17.194;2023-02-19T05:09:52;7.20;99.90
34877;DHT22;21086;44.780;17.194;2023-02-19T05:12:18;7.20;99.90
34877;DHT22;21086;44.780;17.194;2023-02-19T05:14:46;7.20;99.90
34877;DHT22;21086;44.780;17.194;2023-02-19T05:17:13;7.20;99.90
34877;DHT22;21086;44.780;17.194;2023-02-19T05:19:40;7.30;99.90
34877;DHT22;21086;44.780;17.194;2023-02-19T05:22:07;7.20;99.90
34877;DHT22;21086;44.780;17.194;2023-02-19T05:24:34;7.30;99.90
34877;DHT22;21086;44.780;17.194;2023-02-19T05:27:00;7.20;99.90
34877;DHT22;21086;44.780;17.194;2023-02-19T05:29:30;7.20;99.90
34877;DHT22;21086;44.780;17.194;2023-02-19T05:31:57;7.30;99.90
34877;DHT22;21086;44.780;17.194;2023-02-19T05:34:24;7.30;99.90
34877;DHT22;21086;44.780;17.194;2023-02-19T05:36:51;7.30;99.90
34877;DHT22;21086;44.780;17.194;2023-02-19T05:39:18;7.30;99.90
34877;DHT22;21086;44.780;17.194;2023-02-19T05:41:45;7.20;99.90
34877;DHT22;21086;44.780;17.194;2023-02-19T05:44:11;7.00;99.90
34877;DHT22;21086;44.780;17.194;2023-02-19T05:46:38;7.00;99.90
34877;DHT22;21086;44.780;17.194;2023-02-19T05:49:05;6.90;99.90
34877;DHT22;21086;44.780;17.194;2023-02-19T05:51:32;6.80;99.90
34877;DHT22;21086;44.780;17.194;2023-02-19T05:53:59;6.80;99.90
34877;DHT22;21086;44.780;17.194;2023-02-19T05:59:01;6.90;99.90
34877;DHT22;21086;44.780;17.194;2023-02-19T06:01:33;6.90;99.90
34877;DHT22;21086;44.780;17.194;2023-02-19T06:04:01;6.90;99.90
34877;DHT22;21086;44.780;17.194;2023-02-19T06:06:28;6.90;99.90
34877;DHT22;21086;44.780;17.194;2023-02-19T06:08:55;7.00;99.90
34877;DHT22;21086;44.780;17.194;2023-02-19T06:11:22;7.10;99.90
34877;DHT22;21086;44.780;17.194;2023-02-19T06:13:50;7.00;99.90
34877;DHT22;21086;44.780;17.194;2023-02-19T06:16:17;7.00;99.90
34877;DHT22;21086;44.780;17.194;2023-02-19T06:18:45;7.00;99.90
34877;DHT22;21086;44.780;17.194;2023-02-19T06:21:13;7.10;99.90
34877;DHT22;21086;44.780;17.194;2023-02-19T06:23:41;7.10;99.90
34877;DHT22;21086;44.780;17.194;2023-02-19T06:26:10;7.00;99.90
34877;DHT22;21086;44.780;17.194;2023-02-19T06:28:38;7.00;99.90
34877;DHT22;21086;44.780;17.194;2023-02-19T06:31:06;7.10;99.90
34877;DHT22;21086;44.780;17.194;2023-02-19T06:33:34;7.10;99.90
34877;DHT22;21086;44.780;17.194;2023-02-19T06:36:03;7.10;99.90
34877;DHT22;21086;44.780;17.194;2023-02-19T06:38:30;7.30;99.90
34877;DHT22;21086;44.780;17.194;2023-02-19T06:41:01;7.40;99.90
34877;DHT22;21086;44.780;17.194;2023-02-19T06:43:30;7.50;99.90
34877;DHT22;21086;44.780;17.194;2023-02-19T06:45:59;7.50;99.90
34877;DHT22;21086;44.780;17.194;2023-02-19T06:48:27;7.60;99.90
34877;DHT22;21086;44.780;17.194;2023-02-19T06:50:54;7.80;99.90
34877;DHT22;21086;44.780;17.194;2023-02-19T06:53:22;7.90;99.90
34877;DHT22;21086;44.780;17.194;2023-02-19T06:56:06;7.90;99.90
34877;DHT22;21086;44.780;17.194;2023-02-19T06:58:33;7.90;99.90
34877;DHT22;21086;44.780;17.194;2023-02-19T07:01:00;7.90;99.90
34877;DHT22;21086;44.780;17.194;2023-02-19T07:03:27;8.10;99.90
34877;DHT22;21086;44.780;17.194;2023-02-19T07:05:54;8.10;99.90
34877;DHT22;21086;44.780;17.194;2023-02-19T07:08:24;8.20;99.90
34877;DHT22;21086;44.780;17.194;2023-02-19T07:10:55;8.30;99.90
34877;DHT22;21086;44.780;17.194;2023-02-19T07:13:23;8.50;99.90
34877;DHT22;21086;44.780;17.194;2023-02-19T07:16:04;8.70;99.90
34877;DHT22;21086;44.780;17.194;2023-02-19T07:18:34;9.00;99.90
34877;DHT22;21086;44.780;17.194;2023-02-19T07:21:05;9.00;99.90
34877;DHT22;21086;44.780;17.194;2023-02-19T07:23:33;9.30;99.90
34877;DHT22;21086;44.780;17.194;2023-02-19T07:26:00;9.50;99.90
34877;DHT22;21086;44.780;17.194;2023-02-19T07:28:28;9.70;99.90
34877;DHT22;21086;44.780;17.194;2023-02-19T07:31:00;9.90;99.90
34877;DHT22;21086;44.780;17.194;2023-02-19T07:33:27;10.00;99.90
34877;DHT22;21086;44.780;17.194;2023-02-19T07:35:55;10.10;99.90
34877;DHT22;21086;44.780;17.194;2023-02-19T07:38:24;10.30;99.90
34877;DHT22;21086;44.780;17.194;2023-02-19T07:40:55;10.40;99.90
34877;DHT22;21086;44.780;17.194;2023-02-19T07:43:28;10.60;99.90
34877;DHT22;21086;44.780;17.194;2023-02-19T07:45:55;10.80;99.90
34877;DHT22;21086;44.780;17.194;2023-02-19T07:48:22;10.90;99.90
34877;DHT22;21086;44.780;17.194;2023-02-19T07:50:54;11.10;99.90
34877;DHT22;21086;44.780;17.194;2023-02-19T07:53:22;11.30;99.90
34877;DHT22;21086;44.780;17.194;2023-02-19T07:55:50;11.30;99.90
34877;DHT22;21086;44.780;17.194;2023-02-19T07:58:17;11.50;99.90
34877;DHT22;21086;44.780;17.194;2023-02-19T08:00:44;11.60;99.90
34877;DHT22;21086;44.780;17.194;2023-02-19T08:03:11;11.60;99.90
34877;DHT22;21086;44.780;17.194;2023-02-19T08:05:40;11.80;99.90
34877;DHT22;21086;44.780;17.194;2023-02-19T08:08:09;12.00;99.90
34877;DHT22;21086;44.780;17.194;2023-02-19T08:10:37;12.10;99.90
34877;DHT22;21086;44.780;17.194;2023-02-19T08:13:23;12.40;99.90
34877;DHT22;21086;44.780;17.194;2023-02-19T08:16:10;12.40;99.90
34877;DHT22;21086;44.780;17.194;2023-02-19T08:18:49;12.40;99.90
34877;DHT22;21086;44.780;17.194;2023-02-19T08:21:17;12.40;99.90
34877;DHT22;21086;44.780;17.194;2023-02-19T08:23:46;12.50;99.90
34877;DHT22;21086;44.780;17.194;2023-02-19T08:26:16;13.70;99.90
34877;DHT22;21086;44.780;17.194;2023-02-19T08:28:43;12.70;99.90
34877;DHT22;21086;44.780;17.194;2023-02-19T08:31:11;12.80;99.90
34877;DHT22;21086;44.780;17.194;2023-02-19T08:33:39;12.90;99.90
34877;DHT22;21086;44.780;17.194;2023-02-19T08:36:07;13.00;99.90
34877;DHT22;21086;44.780;17.194;2023-02-19T08:38:35;13.10;99.90
34877;DHT22;21086;44.780;17.194;2023-02-19T08:41:05;13.30;99.90
34877;DHT22;21086;44.780;17.194;2023-02-19T08:43:33;13.50;99.90
34877;DHT22;21086;44.780;17.194;2023-02-19T08:46:00;13.70;99.90
34877;DHT22;21086;44.780;17.194;2023-02-19T08:48:27;13.90;99.90
34877;DHT22;21086;44.780;17.194;2023-02-19T08:50:56;14.10;99.90
34877;DHT22;21086;44.780;17.194;2023-02-19T08:53:24;14.30;99.90
34877;DHT22;21086;44.780;17.194;2023-02-19T08:55:52;14.50;99.90
34877;DHT22;21086;44.780;17.194;2023-02-19T08:58:19;14.70;99.90
34877;DHT22;21086;44.780;17.194;2023-02-19T09:00:46;14.90;99.90
34877;DHT22;21086;44.780;17.194;2023-02-19T09:03:13;15.10;99.90
34877;DHT22;21086;44.780;17.194;2023-02-19T09:05:40;15.30;99.90
34877;DHT22;21086;44.780;17.194;2023-02-19T09:08:08;15.60;99.90
34877;DHT22;21086;44.780;17.194;2023-02-19T09:10:35;15.90;99.90
34877;DHT22;21086;44.780;17.194;2023-02-19T09:13:03;16.20;99.90
34877;DHT22;21086;44.780;17.194;2023-02-19T09:15:30;16.50;99.90
34877;DHT22;21086;44.780;17.194;2023-02-19T09:17:59;16.70;99.90
34877;DHT22;21086;44.780;17.194;2023-02-19T09:20:26;17.00;99.90
34877;DHT22;21086;44.780;17.194;2023-02-19T09:22:57;17.20;99.90
34877;DHT22;21086;44.780;17.194;2023-02-19T09:25:25;17.60;99.90
34877;DHT22;21086;44.780;17.194;2023-02-19T09:27:55;17.80;99.90
34877;DHT22;21086;44.780;17.194;2023-02-19T09:30:22;18.00;99.90
34877;DHT22;21086;44.780;17.194;2023-02-19T09:32:49;17.80;99.90
34877;DHT22;21086;44.780;17.194;2023-02-19T09:35:16;17.40;99.90
34877;DHT22;21086;44.780;17.194;2023-02-19T09:37:43;17.20;99.90
34877;DHT22;21086;44.780;17.194;2023-02-19T09:40:11;17.10;99.90
34877;DHT22;21086;44.780;17.194;2023-02-19T09:42:40;17.20;99.90
34877;DHT22;21086;44.780;17.194;2023-02-19T09:45:14;17.50;99.90
34877;DHT22;21086;44.780;17.194;2023-02-19T09:47:43;18.10;99.90
34877;DHT22;21086;44.780;17.194;2023-02-19T09:50:16;18.40;99.90
34877;DHT22;21086;44.780;17.194;2023-02-19T09:52:55;18.80;99.90
34877;DHT22;21086;44.780;17.194;2023-02-19T09:55:33;19.10;99.90
34877;DHT22;21086;44.780;17.194;2023-02-19T09:58:05;19.20;99.90
34877;DHT22;21086;44.780;17.194;2023-02-19T10:00:35;19.10;99.90
34877;DHT22;21086;44.780;17.194;2023-02-19T10:03:08;19.00;99.90
34877;DHT22;21086;44.780;17.194;2023-02-19T10:05:38;18.90;99.90
34877;DHT22;21086;44.780;17.194;2023-02-19T10:08:08;18.60;99.90
34877;DHT22;21086;44.780;17.194;2023-02-19T10:10:39;18.50;99.90
34877;DHT22;21086;44.780;17.194;2023-02-19T10:13:20;18.30;99.90
34877;DHT22;21086;44.780;17.194;2023-02-19T10:15:50;18.10;99.90
34877;DHT22;21086;44.780;17.194;2023-02-19T10:18:21;18.00;99.90
34877;DHT22;21086;44.780;17.194;2023-02-19T10:20:50;18.00;99.90
34877;DHT22;21086;44.780;17.194;2023-02-19T10:23:18;18.00;99.90
34877;DHT22;21086;44.780;17.194;2023-02-19T10:25:56;18.30;99.90
34877;DHT22;21086;44.780;17.194;2023-02-19T10:28:29;18.60;99.90
34877;DHT22;21086;44.780;17.194;2023-02-19T10:30:58;18.80;99.90
34877;DHT22;21086;44.780;17.194;2023-02-19T10:33:26;19.20;99.90
34877;DHT22;21086;44.780;17.194;2023-02-19T10:35:56;19.40;99.90
34877;DHT22;21086;44.780;17.194;2023-02-19T10:41:05;20.50;99.90
34877;DHT22;21086;44.780;17.194;2023-02-19T10:43:38;21.00;99.90
34877;DHT22;21086;44.780;17.194;2023-02-19T10:46:21;21.30;99.90
34877;DHT22;21086;44.780;17.194;2023-02-19T10:49:01;21.80;99.90
34877;DHT22;21086;44.780;17.194;2023-02-19T10:51:40;22.30;99.90
34877;DHT22;21086;44.780;17.194;2023-02-19T10:56:40;23.60;99.90
34877;DHT22;21086;44.780;17.194;2023-02-19T11:01:59;24.20;99.90
34877;DHT22;21086;44.780;17.194;2023-02-19T11:04:35;24.70;99.90
34877;DHT22;21086;44.780;17.194;2023-02-19T11:07:14;24.60;99.90
34877;DHT22;21086;44.780;17.194;2023-02-19T11:09:48;24.10;99.90
34877;DHT22;21086;44.780;17.194;2023-02-19T11:12:30;23.70;99.90
34877;DHT22;21086;44.780;17.194;2023-02-19T11:15:27;23.90;99.90
34877;DHT22;21086;44.780;17.194;2023-02-19T11:18:04;23.90;99.90
34877;DHT22;21086;44.780;17.194;2023-02-19T11:20:33;23.70;99.90
34877;DHT22;21086;44.780;17.194;2023-02-19T11:23:12;23.40;99.90
34877;DHT22;21086;44.780;17.194;2023-02-19T11:25:52;23.20;99.90
34877;DHT22;21086;44.780;17.194;2023-02-19T11:28:24;22.90;99.90
34877;DHT22;21086;44.780;17.194;2023-02-19T11:30:52;22.90;99.90
34877;DHT22;21086;44.780;17.194;2023-02-19T11:33:26;23.40;99.90
34877;DHT22;21086;44.780;17.194;2023-02-19T11:38:42;24.30;99.90
34877;DHT22;21086;44.780;17.194;2023-02-19T11:46:59;24.50;99.90
34877;DHT22;21086;44.780;17.194;2023-02-19T11:50:08;24.00;99.90
34877;DHT22;21086;44.780;17.194;2023-02-19T11:52:42;23.30;99.90
34877;DHT22;21086;44.780;17.194;2023-02-19T12:01:05;22.50;99.90
34877;DHT22;21086;44.780;17.194;2023-02-19T12:06:43;23.60;99.90
34877;DHT22;21086;44.780;17.194;2023-02-19T12:12:38;22.10;99.90
34877;DHT22;21086;44.780;17.194;2023-02-19T12:29:28;20.10;99.90
34877;DHT22;21086;44.780;17.194;2023-02-19T12:37:55;19.20;99.90
34877;DHT22;21086;44.780;17.194;2023-02-19T12:40:33;18.70;99.90
34877;DHT22;21086;44.780;17.194;2023-02-19T12:43:20;18.70;99.90
34877;DHT22;21086;44.780;17.194;2023-02-19T12:56:20;18.90;99.90
34877;DHT22;21086;44.780;17.194;2023-02-19T12:59:07;19.00;99.90
34877;DHT22;21086;44.780;17.194;2023-02-19T13:05:38;18.70;99.90
34877;DHT22;21086;44.780;17.194;2023-02-19T13:08:39;18.70;99.90
34877;DHT22;21086;44.780;17.194;2023-02-19T13:11:36;19.00;99.90
34877;DHT22;21086;44.780;17.194;2023-02-19T13:14:29;19.40;99.90
34877;DHT22;21086;44.780;17.194;2023-02-19T13:19:46;19.50;99.90
34877;DHT22;21086;44.780;17.194;2023-02-19T13:22:21;18.80;99.90
34877;DHT22;21086;44.780;17.194;2023-02-19T13:25:14;18.40;99.90
34877;DHT22;21086;44.780;17.194;2023-02-19T13:28:01;18.50;99.90
34877;DHT22;21086;44.780;17.194;2023-02-19T13:31:01;18.90;99.90
34877;DHT22;21086;44.780;17.194;2023-02-19T13:36:09;19.40;99.90
34877;DHT22;21086;44.780;17.194;2023-02-19T13:38:43;19.80;99.90
34877;DHT22;21086;44.780;17.194;2023-02-19T13:41:26;19.70;99.90
34877;DHT22;21086;44.780;17.194;2023-02-19T13:44:00;19.40;99.90
34877;DHT22;21086;44.780;17.194;2023-02-19T13:46:37;19.10;99.90
34877;DHT22;21086;44.780;17.194;2023-02-19T13:54:29;19.20;99.90
34877;DHT22;21086;44.780;17.194;2023-02-19T13:57:32;19.20;99.90
34877;DHT22;21086;44.780;17.194;2023-02-19T14:00:00;19.70;99.90
34877;DHT22;21086;44.780;17.194;2023-02-19T14:02:31;20.30;99.90
34877;DHT22;21086;44.780;17.194;2023-02-19T14:05:08;20.80;99.90
34877;DHT22;21086;44.780;17.194;2023-02-19T14:07:51;21.00;99.90
34877;DHT22;21086;44.780;17.194;2023-02-19T14:10:50;20.90;99.90
34877;DHT22;21086;44.780;17.194;2023-02-19T14:16:47;20.10;99.90
34877;DHT22;21086;44.780;17.194;2023-02-19T14:25:26;18.40;99.90
34877;DHT22;21086;44.780;17.194;2023-02-19T14:30:27;17.50;99.90
34877;DHT22;21086;44.780;17.194;2023-02-19T14:32:56;17.60;99.90
34877;DHT22;21086;44.780;17.194;2023-02-19T14:35:42;17.50;99.90
34877;DHT22;21086;44.780;17.194;2023-02-19T14:38:23;17.20;99.90
34877;DHT22;21086;44.780;17.194;2023-02-19T14:40:52;17.00;99.90
34877;DHT22;21086;44.780;17.194;2023-02-19T14:43:22;17.10;99.90
34877;DHT22;21086;44.780;17.194;2023-02-19T14:45:57;17.10;99.90
34877;DHT22;21086;44.780;17.194;2023-02-19T14:48:29;17.30;99.90
34877;DHT22;21086;44.780;17.194;2023-02-19T14:51:03;17.40;99.90
34877;DHT22;21086;44.780;17.194;2023-02-19T14:53:37;17.50;99.90
34877;DHT22;21086;44.780;17.194;2023-02-19T14:56:05;17.50;99.90
34877;DHT22;21086;44.780;17.194;2023-02-19T14:58:40;17.40;99.90
34877;DHT22;21086;44.780;17.194;2023-02-19T15:01:27;17.20;99.90
34877;DHT22;21086;44.780;17.194;2023-02-19T15:03:54;17.10;99.90
34877;DHT22;21086;44.780;17.194;2023-02-19T15:06:22;17.00;99.90
34877;DHT22;21086;44.780;17.194;2023-02-19T15:08:52;17.10;99.90
34877;DHT22;21086;44.780;17.194;2023-02-19T15:11:25;17.10;99.90
34877;DHT22;21086;44.780;17.194;2023-02-19T15:13:57;17.30;99.90
34877;DHT22;21086;44.780;17.194;2023-02-19T15:16:27;17.40;99.90
34877;DHT22;21086;44.780;17.194;2023-02-19T15:18:56;17.50;99.90
34877;DHT22;21086;44.780;17.194;2023-02-19T15:24:02;17.30;99.90
34877;DHT22;21086;44.780;17.194;2023-02-19T15:26:35;17.30;99.90
34877;DHT22;21086;44.780;17.194;2023-02-19T15:29:12;17.10;99.90
34877;DHT22;21086;44.780;17.194;2023-02-19T15:31:54;16.90;99.90
34877;DHT22;21086;44.780;17.194;2023-02-19T15:34:22;16.80;99.90
34877;DHT22;21086;44.780;17.194;2023-02-19T15:36:54;16.70;99.90
34877;DHT22;21086;44.780;17.194;2023-02-19T15:39:25;16.70;99.90
34877;DHT22;21086;44.780;17.194;2023-02-19T15:41:58;16.70;99.90
34877;DHT22;21086;44.780;17.194;2023-02-19T15:46:54;17.20;99.90
34877;DHT22;21086;44.780;17.194;2023-02-19T15:49:27;17.50;99.90
34877;DHT22;21086;44.780;17.194;2023-02-19T15:52:07;17.80;99.90
34877;DHT22;21086;44.780;17.194;2023-02-19T15:57:14;18.00;99.90
34877;DHT22;21086;44.780;17.194;2023-02-19T16:00:11;17.90;99.90
34877;DHT22;21086;44.780;17.194;2023-02-19T16:02:41;18.10;99.90
34877;DHT22;21086;44.780;17.194;2023-02-19T16:05:25;18.00;99.90
34877;DHT22;21086;44.780;17.194;2023-02-19T16:10:38;17.60;99.90
34877;DHT22;21086;44.780;17.194;2023-02-19T16:13:05;17.20;99.90
34877;DHT22;21086;44.780;17.194;2023-02-19T16:15:37;16.80;99.90
34877;DHT22;21086;44.780;17.194;2023-02-19T16:18:05;16.30;99.90
34877;DHT22;21086;44.780;17.194;2023-02-19T16:20:33;16.00;99.90
34877;DHT22;21086;44.780;17.194;2023-02-19T16:23:04;15.70;99.90
34877;DHT22;21086;44.780;17.194;2023-02-19T16:25:39;15.40;99.90
34877;DHT22;21086;44.780;17.194;2023-02-19T16:28:19;15.20;99.90
34877;DHT22;21086;44.780;17.194;2023-02-19T16:31:02;15.00;99.90
34877;DHT22;21086;44.780;17.194;2023-02-19T16:33:37;14.80;99.90
34877;DHT22;21086;44.780;17.194;2023-02-19T16:36:20;14.70;99.90
34877;DHT22;21086;44.780;17.194;2023-02-19T16:39:17;14.50;99.90
34877;DHT22;21086;44.780;17.194;2023-02-19T16:44:33;14.20;99.90
34877;DHT22;21086;44.780;17.194;2023-02-19T16:47:13;14.00;99.90
34877;DHT22;21086;44.780;17.194;2023-02-19T16:49:46;13.90;99.90
34877;DHT22;21086;44.780;17.194;2023-02-19T16:52:14;13.80;99.90
34877;DHT22;21086;44.780;17.194;2023-02-19T16:54:43;13.70;99.90
34877;DHT22;21086;44.780;17.194;2023-02-19T16:57:11;13.70;99.90
34877;DHT22;21086;44.780;17.194;2023-02-19T17:00:02;13.60;99.90
34877;DHT22;21086;44.780;17.194;2023-02-19T17:02:30;13.50;99.90
34877;DHT22;21086;44.780;17.194;2023-02-19T17:05:00;13.40;99.90
34877;DHT22;21086;44.780;17.194;2023-02-19T17:07:29;13.40;99.90
34877;DHT22;21086;44.780;17.194;2023-02-19T17:10:00;13.40;99.90
34877;DHT22;21086;44.780;17.194;2023-02-19T17:12:30;13.30;99.90
34877;DHT22;21086;44.780;17.194;2023-02-19T17:15:00;13.30;99.90
34877;DHT22;21086;44.780;17.194;2023-02-19T17:17:27;13.20;99.90
34877;DHT22;21086;44.780;17.194;2023-02-19T17:19:55;13.20;99.90
34877;DHT22;21086;44.780;17.194;2023-02-19T17:22:24;13.10;99.90
34877;DHT22;21086;44.780;17.194;2023-02-19T17:24:52;13.10;99.90
34877;DHT22;21086;44.780;17.194;2023-02-19T17:27:21;13.00;99.90
34877;DHT22;21086;44.780;17.194;2023-02-19T17:29:49;12.90;99.90
34877;DHT22;21086;44.780;17.194;2023-02-19T17:32:16;12.90;99.90
34877;DHT22;21086;44.780;17.194;2023-02-19T17:34:44;12.90;99.90
34877;DHT22;21086;44.780;17.194;2023-02-19T17:37:16;12.80;99.90
34877;DHT22;21086;44.780;17.194;2023-02-19T17:39:43;12.80;99.90
34877;DHT22;21086;44.780;17.194;2023-02-19T17:42:11;12.80;99.90
34877;DHT22;21086;44.780;17.194;2023-02-19T17:44:38;12.70;99.90
34877;DHT22;21086;44.780;17.194;2023-02-19T17:47:06;12.70;99.90
34877;DHT22;21086;44.780;17.194;2023-02-19T17:49:36;12.60;99.90
34877;DHT22;21086;44.780;17.194;2023-02-19T17:52:07;12.60;99.90
34877;DHT22;21086;44.780;17.194;2023-02-19T17:54:39;12.40;99.90
34877;DHT22;21086;44.780;17.194;2023-02-19T17:57:07;12.50;99.90
34877;DHT22;21086;44.780;17.194;2023-02-19T17:59:34;12.50;99.90
34877;DHT22;21086;44.780;17.194;2023-02-19T18:02:01;12.50;99.90
34877;DHT22;21086;44.780;17.194;2023-02-19T18:04:29;12.50;99.90
34877;DHT22;21086;44.780;17.194;2023-02-19T18:06:56;12.50;99.90